Time;durP1;ratioP1;P1;durP2;ratioP2;P2;SDS_P1;SDS_P2;PMS_P1;PMS_P2;Temp;Humidity;BMP_temperature;BMP_pressure;BME280_temperature;BME280_humidity;BME280_pressure;Samples;Min_cycle;Max_cycle;Signal;HPM_P1;HPM_P2
2023/08/28 00:02:22;;;;;;;4.25;1.85;;;15.60;99.90;;;-141.84;79.98;20315.88;5014669;28;20234;-57
2023/08/28 00:04:50;;;;;;;2.10;1.70;;;15.60;99.90;;;-141.84;80.00;20301.63;4998096;28;20246;-57
2023/08/28 00:07:18;;;;;;;2.95;1.70;;;15.50;99.90;;;-141.84;78.50;20315.88;5022603;28;20256;-57
2023/08/28 00:09:48;;;;;;;1.40;1.30;;;15.50;99.90;;;-141.84;79.55;20319.94;5022253;28;20229;-58
2023/08/28 00:12:16;;;;;;;1.65;1.55;;;15.50;99.90;;;-141.84;79.17;20277.25;5022420;28;20240;-55
2023/08/28 00:14:44;;;;;;;2.97;1.85;;;15.50;99.90;;;-141.84;79.15;20305.69;5015356;28;20309;-56
2023/08/28 00:17:12;;;;;;;3.15;1.90;;;15.40;99.90;;;-141.84;80.04;20285.38;5031118;28;20753;-59
2023/08/28 00:19:41;;;;;;;1.95;1.77;;;15.40;99.90;;;-141.84;80.86;20230.50;5042043;28;20295;-55
2023/08/28 00:22:09;;;;;;;2.60;2.00;;;15.30;99.90;;;-141.84;81.11;20269.13;5042565;28;20221;-56
2023/08/28 00:24:37;;;;;;;2.17;1.88;;;15.20;99.90;;;-141.84;80.67;20228.47;5024668;28;20317;-56
2023/08/28 00:27:07;;;;;;;2.38;1.50;;;15.20;99.90;;;-141.84;80.50;20283.34;5022108;28;20345;-57
2023/08/28 00:29:35;;;;;;;3.80;1.70;;;15.10;99.90;;;-141.84;81.22;20234.56;5022168;28;20324;-57
2023/08/28 00:32:04;;;;;;;1.60;1.50;;;15.10;99.90;;;-141.84;82.20;20226.44;5022243;28;20295;-57
2023/08/28 00:34:32;;;;;;;2.63;1.60;;;15.00;99.90;;;-141.84;82.39;20200.00;5013815;28;20214;-56
2023/08/28 00:37:00;;;;;;;2.30;1.85;;;15.00;99.90;;;-141.84;82.35;20204.06;5022474;28;20293;-57
2023/08/28 00:39:29;;;;;;;1.90;1.42;;;14.90;99.90;;;-141.84;82.91;20204.06;5021358;28;20230;-56
2023/08/28 00:41:57;;;;;;;1.70;1.60;;;14.90;99.90;;;-141.84;83.81;20185.78;5021818;28;20324;-57
2023/08/28 00:44:26;;;;;;;1.70;1.60;;;14.80;99.90;;;-141.84;84.13;20185.78;5021714;28;20776;-57
2023/08/28 00:46:54;;;;;;;3.72;1.77;;;14.80;99.90;;;-141.84;83.78;20173.59;5013319;28;20309;-58
2023/08/28 00:49:23;;;;;;;2.22;1.98;;;14.80;99.90;;;-141.84;83.50;20139.03;5022742;28;20316;-56
2023/08/28 00:51:51;;;;;;;1.55;1.45;;;14.80;99.90;;;-141.84;83.58;20130.91;5021732;28;20309;-57
2023/08/28 00:54:19;;;;;;;2.55;1.60;;;14.80;99.90;;;-141.84;83.64;20149.19;5022234;28;20317;-57
2023/08/28 00:56:49;;;;;;;2.72;1.80;;;14.70;99.90;;;-141.84;84.03;20151.22;5005724;28;20348;-56
2023/08/28 00:59:18;;;;;;;3.30;1.77;;;14.70;99.90;;;-141.84;83.92;20108.53;5005778;28;20722;-57
2023/08/28 01:01:48;;;;;;;4.55;1.70;;;14.70;99.90;;;-141.84;83.74;20143.09;5004654;28;20627;-57
2023/08/28 01:04:16;;;;;;;2.50;1.80;;;14.60;99.90;;;-141.84;83.96;20139.03;5006091;28;20218;-57
2023/08/28 01:06:52;;;;;;;2.70;1.88;;;14.60;99.90;;;-141.84;83.63;20167.47;4998133;28;20321;-54
2023/08/28 01:09:34;;;;;;;1.88;1.70;;;14.60;99.90;;;-141.84;83.74;20130.91;5019239;28;20317;-58
2023/08/28 01:12:13;;;;;;;1.65;1.55;;;14.50;99.90;;;-141.84;83.66;20122.78;5038712;28;20321;-55
2023/08/28 01:14:59;;;;;;;3.53;1.60;;;14.50;99.90;;;-141.84;83.88;20112.59;5037224;28;20260;-58
2023/08/28 01:17:31;;;;;;;3.47;1.90;;;14.50;99.90;;;-141.84;84.33;20096.34;5044861;28;20324;-57
2023/08/28 01:20:03;;;;;;;2.03;1.63;;;14.50;99.90;;;-141.84;84.49;20141.06;5042372;28;20232;-56
2023/08/28 01:22:39;;;;;;;1.90;1.80;;;14.50;99.90;;;-141.84;83.77;20149.19;5017529;28;20260;-57
2023/08/28 01:25:10;;;;;;;1.98;1.70;;;14.40;99.90;;;-141.84;83.32;20124.81;5025642;28;20602;-58
2023/08/28 01:27:40;;;;;;;2.03;1.83;;;14.40;99.90;;;-141.84;83.14;20132.94;5025006;28;20238;-56
2023/08/28 01:30:11;;;;;;;1.85;1.75;;;14.40;99.90;;;-141.84;83.15;20110.56;5025040;28;20258;-55
2023/08/28 01:32:43;;;;;;;3.10;2.00;;;14.40;99.90;;;-141.84;83.30;20126.84;5017069;28;20309;-56
2023/08/28 01:35:15;;;;;;;2.45;1.73;;;14.40;99.90;;;-141.84;83.68;20118.69;5024624;28;20222;-58
2023/08/28 01:38:16;;;;;;;2.40;2.08;;;14.40;99.90;;;-141.84;83.47;20122.78;5024523;28;20673;-57
2023/08/28 01:40:53;;;;;;;1.90;1.80;;;14.40;99.90;;;-141.84;83.63;20094.31;5015982;28;20242;-56
2023/08/28 01:43:24;;;;;;;4.03;1.98;;;14.40;99.90;;;-141.84;83.91;20116.66;5024853;28;20225;-57
2023/08/28 01:45:54;;;;;;;2.72;1.75;;;14.30;99.90;;;-141.84;84.29;20086.19;5024790;28;20768;-55
2023/08/28 01:48:22;;;;;;;2.75;1.98;;;14.30;99.90;;;-141.84;84.38;20080.09;5039677;28;20342;-56
2023/08/28 01:50:50;;;;;;;1.70;1.60;;;14.30;99.90;;;-141.84;84.41;20069.94;5036909;28;20233;-56
2023/08/28 01:53:18;;;;;;;3.03;1.80;;;14.30;99.90;;;-141.84;84.21;20084.16;5040287;28;20681;-57
2023/08/28 01:56:24;;;;;;;1.80;1.70;;;14.30;99.90;;;-141.84;84.06;20071.97;5024445;28;20233;-57
2023/08/28 01:58:55;;;;;;;1.98;1.80;;;14.20;99.90;;;-141.84;84.03;20059.75;5018310;28;20269;-62
2023/08/28 02:01:26;;;;;;;2.15;1.90;;;14.20;99.90;;;-141.84;84.16;20061.78;5024533;28;20201;-61
2023/08/28 02:03:55;;;;;;;2.00;1.75;;;14.20;99.90;;;-141.84;84.35;20086.19;5024314;28;20237;-61
2023/08/28 02:06:23;;;;;;;2.38;1.77;;;14.20;99.90;;;-141.84;84.30;20065.84;5024661;28;20284;-62
2023/08/28 02:08:51;;;;;;;3.53;2.40;;;14.20;99.90;;;-141.84;83.91;20039.44;5015306;28;20324;-61
2023/08/28 02:11:19;;;;;;;1.90;1.75;;;14.10;99.90;;;-141.84;83.26;20057.72;5023811;28;20754;-61
2023/08/28 02:13:49;;;;;;;2.13;1.85;;;14.10;99.90;;;-141.84;83.82;20090.25;5021103;28;20206;-62
2023/08/28 02:16:18;;;;;;;2.75;1.80;;;14.10;99.90;;;-141.84;83.75;20082.13;5005579;28;20290;-61
2023/08/28 02:18:46;;;;;;;2.53;2.00;;;14.10;99.90;;;-141.84;83.89;20025.22;5016256;28;20230;-62
2023/08/28 02:21:15;;;;;;;2.15;1.95;;;14.00;99.90;;;-141.84;84.22;20047.56;5024069;28;20608;-63
2023/08/28 02:23:43;;;;;;;2.15;1.90;;;14.00;99.90;;;-141.84;84.33;20065.84;5023919;28;20258;-61
2023/08/28 02:26:11;;;;;;;2.50;2.30;;;14.00;99.90;;;-141.84;82.54;20061.78;5023872;28;20316;-62
2023/08/28 02:28:39;;;;;;;2.00;1.77;;;14.00;99.90;;;-141.84;82.85;20029.28;5016019;28;20218;-61
2023/08/28 02:31:08;;;;;;;2.63;2.40;;;14.00;99.90;;;-141.84;83.61;20118.69;5024177;28;20241;-63
2023/08/28 02:33:37;;;;;;;5.22;1.90;;;14.00;99.90;;;-141.84;83.58;20094.31;5023458;28;20256;-61
2023/08/28 02:36:05;;;;;;;2.25;2.05;;;14.00;99.90;;;-141.84;84.00;20041.47;5012711;28;20250;-61
2023/08/28 02:38:33;;;;;;;2.25;2.05;;;14.00;99.90;;;-141.84;84.13;20051.63;4995865;28;20231;-61
2023/08/28 02:41:07;;;;;;;3.25;2.60;;;14.00;99.90;;;-141.84;84.33;20057.72;5008394;28;20244;-61
2023/08/28 02:43:35;;;;;;;2.95;2.10;;;14.00;99.90;;;-141.84;83.49;20055.69;5022229;28;20234;-62
2023/08/28 02:46:03;;;;;;;2.63;2.35;;;14.10;99.90;;;-141.84;83.84;20090.25;5004778;28;20285;-62
2023/08/28 02:48:33;;;;;;;3.25;2.40;;;14.00;99.90;;;-141.84;83.45;20090.25;5031964;28;20236;-61
2023/08/28 02:51:01;;;;;;;3.75;2.40;;;14.00;99.90;;;-141.84;83.75;20102.44;5043461;28;20320;-63
2023/08/28 02:53:29;;;;;;;3.13;2.33;;;14.00;99.90;;;-141.84;84.46;20043.50;5038069;28;20308;-61
2023/08/28 02:56:22;;;;;;;2.72;2.50;;;14.00;99.90;;;-141.84;84.90;20023.19;5023297;28;20229;-60
2023/08/28 02:58:51;;;;;;;2.50;1.98;;;14.00;99.90;;;-141.84;84.37;20074.00;5016005;28;20288;-62
2023/08/28 03:01:20;;;;;;;3.22;2.15;;;14.00;99.90;;;-141.84;84.17;20082.13;5023803;28;20225;-61
2023/08/28 03:03:50;;;;;;;2.60;2.40;;;14.10;99.90;;;-141.84;83.98;20088.22;5022727;28;20233;-61
2023/08/28 03:06:18;;;;;;;3.33;2.30;;;14.10;99.90;;;-141.84;84.65;20078.06;5023076;28;20287;-62
2023/08/28 03:08:46;;;;;;;3.08;2.45;;;14.00;99.90;;;-141.84;84.58;20092.28;5015691;28;20237;-63
2023/08/28 03:11:14;;;;;;;2.83;2.58;;;14.00;99.90;;;-141.84;84.12;20092.28;5023110;28;20606;-62
2023/08/28 03:13:42;;;;;;;3.95;2.20;;;14.10;99.90;;;-141.84;84.33;20090.25;5023333;28;20276;-62
2023/08/28 03:16:10;;;;;;;3.08;2.50;;;14.10;99.90;;;-141.84;84.30;20084.16;5023570;28;20222;-63
2023/08/28 03:18:40;;;;;;;3.05;2.60;;;14.10;99.90;;;-141.84;84.86;20102.44;5034422;28;20743;-62
2023/08/28 03:21:09;;;;;;;2.80;2.53;;;14.10;99.90;;;-141.84;84.64;20082.13;5043238;28;20268;-61
2023/08/28 03:23:38;;;;;;;4.35;2.80;;;14.10;99.90;;;-141.84;84.83;20067.88;5042767;28;20282;-61
2023/08/28 03:26:06;;;;;;;3.10;2.38;;;14.10;99.90;;;-141.84;84.89;20035.38;5042938;28;20256;-62
2023/08/28 03:28:34;;;;;;;2.80;2.40;;;14.10;99.90;;;-141.84;84.32;20043.50;5034805;28;20680;-61
2023/08/28 03:31:03;;;;;;;3.40;2.90;;;14.00;99.90;;;-141.84;84.16;20061.78;5043172;28;20241;-61
2023/08/28 03:33:32;;;;;;;2.53;2.33;;;14.10;99.90;;;-141.84;83.63;20071.97;5042582;28;20229;-63
2023/08/28 03:36:00;;;;;;;2.65;2.42;;;14.10;99.90;;;-141.84;83.06;20067.88;5031622;28;20234;-61
2023/08/28 03:38:30;;;;;;;2.78;2.58;;;14.10;99.90;;;-141.84;83.84;20057.72;5019418;28;20607;-63
2023/08/28 03:40:58;;;;;;;2.80;2.60;;;14.00;99.90;;;-141.84;83.50;20053.66;5023518;28;20268;-61
2023/08/28 03:43:26;;;;;;;6.60;2.92;;;14.00;99.90;;;-141.84;84.06;20053.66;5023307;28;20284;-61
2023/08/28 03:45:54;;;;;;;3.60;2.70;;;13.90;99.90;;;-141.84;83.33;20069.94;5022978;28;20240;-62
2023/08/28 03:48:23;;;;;;;3.88;2.92;;;13.90;99.90;;;-141.84;83.93;20055.69;5041092;28;20233;-62
2023/08/28 03:50:51;;;;;;;3.75;2.78;;;13.90;99.90;;;-141.84;84.32;20039.44;5034465;28;20674;-63
2023/08/28 03:53:20;;;;;;;3.80;2.67;;;13.80;99.90;;;-141.84;84.94;20053.66;5038413;28;20253;-62
2023/08/28 03:55:50;;;;;;;2.95;2.65;;;13.80;99.90;;;-141.84;85.42;19992.69;5020082;28;20321;-63
2023/08/28 03:58:20;;;;;;;3.08;2.88;;;13.80;99.90;;;-141.84;85.33;20049.59;5003747;28;20310;-62
2023/08/28 04:00:53;;;;;;;3.08;2.78;;;13.80;99.90;;;-141.84;85.45;20019.13;4995902;28;26660;-62
2023/08/28 04:03:22;;;;;;;3.65;2.65;;;13.80;99.90;;;-141.84;85.46;20041.47;5002330;28;20230;-61
2023/08/28 04:05:52;;;;;;;3.00;2.50;;;13.70;99.90;;;-141.84;85.75;20000.81;5002343;28;20608;-62
2023/08/28 04:08:21;;;;;;;4.07;3.17;;;13.70;99.90;;;-141.84;85.40;20021.16;5002781;28;20280;-61
2023/08/28 04:10:50;;;;;;;3.53;3.13;;;13.80;99.90;;;-141.84;85.33;20010.97;4994823;28;20560;-62
2023/08/28 04:13:18;;;;;;;5.15;3.50;;;13.70;99.90;;;-141.84;84.21;20069.94;5003385;28;20242;-61
2023/08/28 04:15:47;;;;;;;3.85;3.10;;;13.80;99.90;;;-141.84;84.28;20017.09;5003095;28;20321;-61
2023/08/28 04:18:18;;;;;;;5.53;3.30;;;13.80;99.90;;;-141.84;84.79;20041.47;5020475;28;20234;-62
2023/08/28 04:20:46;;;;;;;4.15;3.40;;;13.80;99.90;;;-141.84;84.83;20023.19;5014238;28;20226;-61
2023/08/28 04:23:15;;;;;;;3.97;3.58;;;13.80;99.90;;;-141.84;84.74;20019.13;5022282;28;20324;-61
2023/08/28 04:25:43;;;;;;;5.38;3.40;;;13.80;99.90;;;-141.84;84.83;20037.41;5021853;28;20563;-62
2023/08/28 04:28:12;;;;;;;3.67;3.38;;;13.80;99.90;;;-141.84;83.57;20013.00;5022722;28;20728;-60
2023/08/28 04:30:42;;;;;;;3.60;3.30;;;13.80;99.90;;;-141.84;84.17;20041.47;5015037;28;20275;-62
2023/08/28 04:33:10;;;;;;;4.45;3.58;;;13.80;99.90;;;-141.84;84.55;20053.66;5026337;28;20226;-62
2023/08/28 04:35:38;;;;;;;4.10;3.00;;;13.90;99.90;;;-141.84;84.97;20021.16;5018326;28;20273;-61
2023/08/28 04:38:06;;;;;;;3.58;2.90;;;13.90;99.90;;;-141.84;84.95;20008.94;5006363;28;20230;-61
2023/08/28 04:40:35;;;;;;;3.72;2.88;;;;;;;-141.84;83.73;20049.59;4998696;28;20205;-62
2023/08/28 04:43:03;;;;;;;4.03;3.20;;;;;;;-141.84;83.82;20076.03;5026165;28;20740;-61
2023/08/28 04:45:34;;;;;;;4.55;3.28;;;;;;;-141.84;84.00;20098.38;5009152;28;20234;-62
2023/08/28 04:48:02;;;;;;;3.60;2.97;;;;;;;-141.84;83.36;20092.28;5034449;28;20316;-62
2023/08/28 04:50:31;;;;;;;6.55;3.30;;;;;;;-141.84;81.41;20106.50;5038220;28;20232;-63
2023/08/28 04:53:00;;;;;;;3.20;2.95;;;;;;;-141.84;81.29;20155.28;5044310;28;20243;-62
2023/08/28 04:55:29;;;;;;;4.63;3.50;;;;;;;-141.84;81.28;20153.25;5025609;28;20202;-62
2023/08/28 04:57:57;;;;;;;3.42;2.80;;;;;;;-141.84;79.87;20161.38;5025934;28;20301;-61
2023/08/28 05:00:27;;;;;;;3.10;2.90;;;;;;;-141.84;79.32;20169.53;5025308;28;20233;-62
2023/08/28 05:02:57;;;;;;;3.63;2.80;;;;;;;-141.84;79.63;20204.06;5025279;28;20323;-61
2023/08/28 05:05:25;;;;;;;3.50;2.78;;;;;;;-141.84;79.59;20175.63;5024822;28;20284;-62
2023/08/28 05:07:54;;;;;;;3.20;2.78;;;;;;;-141.84;79.39;20179.69;5025527;28;20225;-62
2023/08/28 05:10:23;;;;;;;3.70;3.30;;;;;;;-141.84;78.89;20216.25;5025197;28;20202;-62
2023/08/28 05:12:51;;;;;;;3.67;2.92;;;;;;;-141.84;77.81;20212.19;5017713;28;20679;-61
2023/08/28 05:15:20;;;;;;;3.10;2.88;;;;;;;-141.84;76.56;20252.84;5025487;28;20749;-62
2023/08/28 05:17:48;;;;;;;5.28;3.22;;;;;;;-141.84;76.54;20232.53;5038580;28;20264;-62
2023/08/28 05:20:18;;;;;;;6.55;3.28;;;;;;;-141.84;76.96;20244.72;5038661;28;20776;-63
2023/08/28 05:22:47;;;;;;;4.10;2.72;;;;;;;-141.84;77.16;20256.91;5017572;28;20234;-62
2023/08/28 05:25:16;;;;;;;2.88;2.30;;;;;;;-141.84;77.53;20248.78;5025193;28;20238;-61
2023/08/28 05:27:44;;;;;;;4.45;3.80;;;;;;;-141.84;77.02;20281.31;5025028;28;20832;-62
2023/08/28 05:30:13;;;;;;;4.22;2.50;;;;;;;-141.84;76.44;20289.44;5025180;28;20328;-63
2023/08/28 05:32:42;;;;;;;2.92;2.72;;;;;;;-141.84;76.93;20260.97;5017288;28;20308;-62
2023/08/28 05:35:10;;;;;;;3.20;2.90;;;;;;;-141.84;75.64;20324.00;5021205;28;20305;-61
2023/08/28 05:37:40;;;;;;;5.30;2.70;;;;;;;-141.84;76.49;20244.72;5006545;28;20294;-62
2023/08/28 05:40:13;;;;;;;5.28;2.60;;;;;;;-141.84;77.16;20254.88;5025284;28;20232;-63
2023/08/28 05:42:42;;;;;;;3.03;2.70;;;;;;;-141.84;77.37;20277.25;5016522;28;20229;-62
2023/08/28 05:45:11;;;;;;;3.17;2.35;;;;;;;-141.84;76.82;20279.28;5024719;28;20233;-63
2023/08/28 05:47:40;;;;;;;3.10;2.80;;;;;;;-141.84;74.29;20330.09;5036717;28;20230;-62
2023/08/28 05:53:59;;;;;;;2.80;2.53;;;;;;;-141.84;72.34;20441.88;5020346;28;20779;-62
2023/08/28 05:56:27;;;;;;;4.85;2.70;;;;;;;-141.84;73.29;20413.44;5024178;28;20305;-61
2023/08/28 05:58:56;;;;;;;4.93;3.00;;;;;;;-141.84;72.55;20431.72;5024115;28;20720;-62
2023/08/28 06:01:24;;;;;;;3.35;2.85;;;;;;;-141.84;72.69;20407.34;5024325;28;20309;-62
2023/08/28 06:03:56;;;;;;;3.28;2.67;;;;;;;-141.84;73.23;20411.41;5024669;28;20232;-63
2023/08/28 06:06:24;;;;;;;3.55;3.25;;;;;;;-141.84;72.55;20447.97;5024087;28;20230;-61
2023/08/28 06:08:53;;;;;;;3.47;2.78;;;;;;;-141.84;71.73;20498.81;5020549;28;20249;-62
2023/08/28 06:11:23;;;;;;;5.47;3.22;;;;;;;-141.84;71.57;20500.84;5037289;28;20424;-61
2023/08/28 06:13:51;;;;;;;3.42;3.10;;;;;;;-141.84;70.67;20488.63;5023516;28;20222;-61
2023/08/28 06:16:20;;;;;;;3.53;3.00;;;;;;;-141.84;71.34;20460.19;5024070;28;20212;-61
2023/08/28 06:18:48;;;;;;;4.22;3.05;;;;;;;-141.84;71.51;20500.84;5017208;28;20760;-63
2023/08/28 06:21:19;;;;;;;3.78;3.20;;;;;;;-141.84;69.76;20547.59;5023991;28;20797;-61
2023/08/28 06:23:48;;;;;;;4.72;3.50;;;;;;;-141.84;69.84;20565.88;5033527;28;20229;-62
2023/08/28 06:26:17;;;;;;;3.10;2.90;;;;;;;-141.84;70.34;20569.94;5040738;28;20304;-62
2023/08/28 06:28:47;;;;;;;3.58;2.92;;;;;;;-141.84;70.60;20529.28;5016149;28;20202;-62
2023/08/28 06:31:16;;;;;;;4.90;3.00;;;;;;;-141.84;71.44;20508.97;5024215;28;20244;-63
2023/08/28 06:33:45;;;;;;;4.43;2.90;;;;;;;-141.84;71.04;20533.34;5023868;28;20300;-62
2023/08/28 06:36:13;;;;;;;2.88;2.67;;;;;;;-141.84;70.17;20569.94;5023925;28;20768;-61
2023/08/28 06:38:42;;;;;;;4.72;3.17;;;;;;;-141.84;69.01;20604.50;5015023;28;20230;-62
2023/08/28 06:41:11;;;;;;;3.83;3.33;;;;;;;-141.84;68.34;20653.28;5023831;28;20257;-61
2023/08/28 06:43:39;;;;;;;3.40;3.05;;;;;;;-141.84;68.62;20598.41;5023606;28;20266;-60
2023/08/28 06:46:09;;;;;;;4.68;3.60;;;;;;;-141.84;68.29;20612.63;5024005;28;20228;-62
2023/08/28 06:48:38;;;;;;;4.45;3.17;;;;;;;-141.84;68.12;20639.06;5015841;28;20226;-61
2023/08/28 06:51:06;;;;;;;5.88;3.40;;;;;;;-141.84;68.29;20671.59;5023976;28;20225;-62
2023/08/28 06:53:34;;;;;;;5.05;3.20;;;;;;;-141.84;68.14;20647.19;5029472;28;20244;-62
2023/08/28 06:56:04;;;;;;;4.53;3.42;;;;;;;-141.84;67.43;20691.91;5042976;28;20229;-60
2023/08/28 06:58:33;;;;;;;4.07;3.25;;;16.60;99.90;;;-141.84;67.13;20683.78;5023816;28;20588;-60
2023/08/28 07:01:01;;;;;;;3.50;3.20;;;16.60;99.90;;;-141.84;68.64;20620.78;5023916;28;20237;-62
2023/08/28 07:03:30;;;;;;;4.55;2.88;;;16.60;99.90;;;-141.84;68.80;20622.81;5022942;28;20222;-61
2023/08/28 07:05:58;;;;;;;3.15;2.88;;;16.60;99.90;;;-141.84;68.13;20643.13;5023356;28;20230;-62
2023/08/28 07:08:27;;;;;;;6.72;3.38;;;16.60;99.90;;;-141.84;67.31;20683.78;5022453;28;20230;-62
2023/08/28 07:10:55;;;;;;;3.17;2.97;;;16.50;99.90;;;-141.84;66.79;20708.19;5020826;28;20320;-61
2023/08/28 07:13:23;;;;;;;3.15;2.85;;;16.70;99.90;;;-141.84;65.63;20734.59;5023537;28;20660;-62
2023/08/28 07:15:55;;;;;;;6.18;3.00;;;16.80;99.90;;;-141.84;65.51;20767.13;5023021;28;20233;-64
2023/08/28 07:18:23;;;;;;;3.25;2.95;;;16.90;99.90;;;-141.84;65.80;20765.09;5022557;28;20237;-61
2023/08/28 07:20:53;;;;;;;3.60;2.88;;;16.90;99.90;;;-141.84;66.72;20734.59;5014906;28;20226;-63
2023/08/28 07:23:24;;;;;;;3.53;3.03;;;16.90;99.90;;;-141.84;66.19;20752.91;5029315;28;20610;-64
2023/08/28 07:25:53;;;;;;;4.55;3.03;;;16.90;99.90;;;-141.84;66.51;20767.13;5042481;28;20312;-61
2023/08/28 07:28:21;;;;;;;3.30;2.88;;;17.00;99.90;;;-141.84;64.77;20830.16;5026341;28;20315;-62
2023/08/28 07:30:49;;;;;;;3.05;2.65;;;17.00;99.90;;;-141.84;65.77;20799.66;5015246;28;24616;-62
2023/08/28 07:33:18;;;;;;;3.60;2.40;;;17.20;99.90;;;-141.84;64.51;20880.97;5022219;28;20233;-61
2023/08/28 07:35:46;;;;;;;5.10;2.90;;;17.30;99.90;;;-141.84;65.32;20856.56;5022712;28;20228;-61
2023/08/28 07:38:16;;;;;;;3.78;2.60;;;17.20;99.90;;;-141.84;65.72;20836.25;5022110;28;20662;-64
2023/08/28 07:40:47;;;;;;;3.53;2.45;;;17.30;99.90;;;-141.84;65.94;20838.28;5014207;28;20213;-63
2023/08/28 07:43:15;;;;;;;4.78;3.33;;;17.40;99.90;;;-141.84;64.02;20907.41;5022688;28;20236;-63
2023/08/28 07:45:44;;;;;;;2.72;2.40;;;17.40;99.90;;;-141.84;63.92;20891.13;5022136;28;20236;-63
2023/08/28 07:48:12;;;;;;;2.72;2.53;;;17.40;99.90;;;-141.84;64.34;20878.94;5021909;28;20241;-62
2023/08/28 07:50:40;;;;;;;3.72;2.60;;;17.40;99.90;;;-141.84;63.17;20919.59;5013304;28;20234;-62
2023/08/28 07:53:08;;;;;;;2.72;2.45;;;17.50;99.90;;;-141.84;64.52;20876.91;5026635;28;20324;-62
2023/08/28 07:55:38;;;;;;;2.63;2.42;;;17.50;99.90;;;-141.84;63.40;20919.59;5024533;28;20584;-63
2023/08/28 07:58:07;;;;;;;4.05;2.65;;;17.50;99.90;;;-141.84;62.16;20986.69;5022790;28;20202;-62
2023/08/28 08:00:35;;;;;;;3.22;2.60;;;17.50;99.90;;;-141.84;63.64;20935.88;5013847;28;20333;-63
2023/08/28 08:03:04;;;;;;;2.72;2.53;;;17.60;99.90;;;-141.84;63.44;20960.25;5020765;28;20257;-62
2023/08/28 08:05:33;;;;;;;3.70;2.53;;;17.60;99.90;;;-141.84;62.91;20992.78;5023031;28;20229;-62
2023/08/28 08:08:01;;;;;;;2.80;2.60;;;17.70;99.90;;;-141.84;63.11;20996.84;5025457;28;20280;-62
2023/08/28 08:10:30;;;;;;;3.65;2.90;;;17.80;99.90;;;-141.84;64.09;20950.09;5022558;28;20233;-62
2023/08/28 08:12:59;;;;;;;2.97;2.75;;;17.80;99.90;;;-141.84;63.47;20946.03;5023606;28;20292;-63
2023/08/28 08:15:28;;;;;;;2.70;2.50;;;17.80;99.90;;;-141.84;62.79;21013.13;5025860;28;20636;-63
2023/08/28 08:17:56;;;;;;;3.25;2.90;;;17.90;99.90;;;-141.84;62.91;20988.72;5026069;28;20229;-61
2023/08/28 08:20:25;;;;;;;3.78;2.92;;;17.90;99.90;;;-141.84;60.90;21088.34;5025864;28;20226;-63
2023/08/28 08:22:53;;;;;;;3.20;2.78;;;17.90;99.90;;;-141.84;61.39;21080.19;5023645;28;20236;-62
2023/08/28 08:25:23;;;;;;;3.25;2.50;;;18.00;99.90;;;-141.84;62.06;21025.31;5046068;28;20463;-62
2023/08/28 08:27:51;;;;;;;3.50;3.20;;;17.90;99.90;;;-141.84;59.93;21068.00;5045295;28;20637;-62
2023/08/28 08:30:23;;;;;;;3.22;2.88;;;17.90;99.90;;;-141.84;60.72;21070.03;5045732;28;20229;-63
2023/08/28 08:32:51;;;;;;;4.30;3.10;;;18.10;99.90;;;-141.84;60.12;21118.84;5037694;28;20773;-63
2023/08/28 08:35:20;;;;;;;4.00;3.38;;;18.10;99.90;;;-141.84;59.19;21155.44;5036571;28;20226;-64
2023/08/28 08:37:52;;;;;;;3.45;3.15;;;18.30;99.90;;;-141.84;58.56;21200.16;5025700;28;20212;-64
2023/08/28 08:40:26;;;;;;;3.05;2.75;;;18.50;99.90;;;-141.84;59.38;21200.16;5025593;28;20206;-64
2023/08/28 08:42:55;;;;;;;3.90;3.42;;;18.60;99.90;;;-141.84;60.35;21234.72;5025306;28;20608;-65
2023/08/28 08:45:29;;;;;;;4.38;3.03;;;;;;;-141.84;58.49;21269.28;5025567;28;20265;-62
2023/08/28 08:48:00;;;;;;;3.67;3.10;;;;;;;-141.84;57.83;21305.88;5025547;28;20234;-63
2023/08/28 08:50:31;;;;;;;3.90;3.03;;;;;;;-141.84;57.20;21368.91;5022128;28;20720;-62
2023/08/28 08:53:06;;;;;;;3.42;3.13;;;;;;;-141.84;57.10;21320.09;5028776;28;20225;-62
2023/08/28 08:55:42;;;;;;;4.43;3.10;;;;;;;-141.84;57.79;21344.50;5044400;28;20201;-62
2023/08/28 08:58:14;;;;;;;3.08;2.78;;;;;;;-141.84;58.16;21305.88;5026254;28;20296;-62
2023/08/28 09:00:44;;;;;;;7.15;3.10;;;;;;;-141.84;58.85;21326.22;5017853;28;20225;-62
2023/08/28 09:03:15;;;;;;;5.10;2.90;;;;;;;-141.84;59.14;21281.47;5009378;28;20237;-63
2023/08/28 09:05:46;;;;;;;29.45;4.82;;;;;;;-141.84;56.79;21332.31;5005493;28;20253;-64
2023/08/28 09:08:16;;;;;;;61.42;6.30;;;;;;;-141.84;56.18;21356.69;5007342;28;20630;-63
2023/08/28 09:10:46;;;;;;;2.90;2.60;;;;;;;-141.84;56.62;21289.59;5022056;28;20228;-63
2023/08/28 09:13:14;;;;;;;150.50;12.00;;;;;;;-141.84;56.90;21293.69;5023999;28;20709;-63
2023/08/28 09:15:44;;;;;;;4.20;2.30;;;;;;;-141.84;55.80;21375.00;5023815;28;20226;-63
2023/08/28 09:18:13;;;;;;;3.13;2.35;;;;;;;-141.84;55.93;21391.28;5023770;28;20226;-63
2023/08/28 09:20:42;;;;;;;3.05;2.15;;;;;;;-141.84;56.18;21399.41;5017133;28;20347;-63
2023/08/28 09:23:11;;;;;;;4.25;2.42;;;;;;;-141.84;55.72;21494.97;5029495;28;20676;-64
2023/08/28 09:25:40;;;;;;;3.60;2.50;;;;;;;-141.84;54.57;21527.50;5045014;28;20232;-66
2023/08/28 09:28:09;;;;;;;3.97;2.72;;;;;;;-141.84;53.15;21570.19;5024815;28;20317;-64
2023/08/28 09:30:38;;;;;;;3.05;2.80;;;;;;;-141.84;53.92;21537.66;5016520;28;20318;-64
2023/08/28 09:33:08;;;;;;;3.97;3.10;;;;;;;-141.84;53.49;21574.25;5024339;28;20571;-64
2023/08/28 09:35:40;;;;;;;2.60;2.40;;;;;;;-141.84;52.18;21621.03;5024814;28;20210;-66
2023/08/28 09:38:09;;;;;;;3.65;2.22;;;;;;;-141.84;52.70;21558.00;5023898;28;20221;-65
2023/08/28 09:40:39;;;;;;;1.90;1.70;;;;;;;-141.84;52.59;21574.25;5016201;28;20226;-66
2023/08/28 09:43:12;;;;;;;3.20;2.50;;;;;;;-141.84;52.65;21582.38;5024042;28;20332;-63
2023/08/28 09:45:42;;;;;;;4.07;3.28;;;;;;;-141.84;52.54;21637.28;5024100;28;20230;-62
2023/08/28 09:48:13;;;;;;;3.33;3.03;;;;;;;-141.84;52.01;21720.66;5023950;28;20569;-62
2023/08/28 09:50:43;;;;;;;2.72;2.42;;;;;;;-141.84;53.15;21606.78;5016942;28;20293;-61
2023/08/28 09:53:13;;;;;;;4.30;2.67;;;;;;;-141.84;54.17;21574.25;5029016;28;20233;-62
2023/08/28 09:55:47;;;;;;;2.88;2.38;;;;;;;-141.84;53.77;21537.66;5041701;28;20229;-61
2023/08/28 09:58:17;;;;;;;4.93;2.60;;;;;;;-141.84;53.34;21549.84;5026885;28;20275;-61
2023/08/28 10:00:46;;;;;;;2.28;1.77;;;;;;;-141.84;53.89;21564.09;5025394;28;20608;-62
2023/08/28 10:03:16;;;;;;;2.22;2.00;;;;;;;-141.84;52.86;21594.59;5028259;28;20234;-61
2023/08/28 10:05:46;;;;;;;1.77;1.60;;;;;;;-141.84;52.40;21564.09;5029940;28;20681;-63
2023/08/28 10:08:16;;;;;;;2.88;2.15;;;;;;;-141.84;53.10;21570.19;5037960;28;20318;-62
2023/08/28 10:10:46;;;;;;;5.18;2.20;;;;;;;-141.84;53.57;21574.25;5019018;28;20308;-62
2023/08/28 10:13:17;;;;;;;2.10;1.77;;;;;;;-141.84;52.97;21623.06;5009885;28;20234;-62
2023/08/28 10:15:55;;;;;;;2.35;1.85;;;;;;;-141.84;52.80;21631.19;4991800;28;20738;-62
2023/08/28 10:18:30;;;;;;;2.70;1.58;;;;;;;-141.84;50.78;21653.56;5021442;28;20248;-62
2023/08/28 10:20:59;;;;;;;1.77;1.50;;;;;;;-141.84;51.49;21655.59;5043244;28;20276;-62
2023/08/28 10:23:29;;;;;;;2.22;1.60;;;;;;;-141.84;53.00;21639.31;5043532;28;20259;-62
2023/08/28 10:25:59;;;;;;;1.30;1.20;;;;;;;-141.84;52.62;21639.31;5028350;28;20233;-61
2023/08/28 10:28:29;;;;;;;3.30;1.90;;;;;;;-141.84;53.04;21688.13;5017824;28;20234;-62
2023/08/28 10:30:58;;;;;;;1.67;1.52;;;20.30;99.90;;;-141.84;52.38;21675.94;5023009;28;20717;-63
2023/08/28 10:33:33;;;;;;;2.13;1.45;;;20.20;99.90;;;-141.84;52.66;21708.47;5023390;28;20233;-62
2023/08/28 10:36:02;;;;;;;1.70;1.60;;;20.50;99.90;;;-141.84;52.89;21704.38;5017733;28;20199;-61
2023/08/28 10:38:33;;;;;;;4.97;2.20;;;20.50;99.90;;;-141.84;53.63;21682.03;4995548;28;20203;-62
2023/08/28 10:41:07;;;;;;;2.40;2.08;;;20.50;99.90;;;-141.84;52.16;21667.78;5021696;28;20647;-62
2023/08/28 10:43:36;;;;;;;2.17;1.75;;;20.40;99.90;;;-141.84;52.80;21682.03;5021998;28;20276;-62
2023/08/28 10:46:05;;;;;;;3.35;2.25;;;20.30;99.90;;;-141.84;51.99;21680.00;5023386;28;20229;-63